createdAt,value
2023-02-13T00:01:59.993Z,5.58
2023-02-13T00:05:01.729Z,5.57
2023-02-13T00:08:03.616Z,5.55
2023-02-13T00:11:05.472Z,5.52
2023-02-13T00:14:07.060Z,5.51
2023-02-13T00:17:08.625Z,5.48
2023-02-13T00:20:11.502Z,5.47
2023-02-13T00:23:13.082Z,5.45
2023-02-13T00:26:16.813Z,5.44
2023-02-13T00:29:18.455Z,5.41
2023-02-13T00:32:20.064Z,5.38
2023-02-13T00:35:21.614Z,5.37
2023-02-13T00:38:23.134Z,5.37
2023-02-13T00:41:24.749Z,5.35
2023-02-13T00:44:26.327Z,5.34
2023-02-13T00:47:27.911Z,5.31
2023-02-13T00:50:29.447Z,5.30
2023-02-13T00:53:31.640Z,5.28
2023-02-13T00:56:33.681Z,5.26
2023-02-13T00:59:35.217Z,5.26
2023-02-13T01:02:36.839Z,5.24
2023-02-13T01:05:38.477Z,5.23
2023-02-13T01:08:40.801Z,5.20
2023-02-13T01:11:42.373Z,5.18
2023-02-13T01:14:43.868Z,5.15
2023-02-13T01:17:45.488Z,5.11
2023-02-13T01:20:57.755Z,5.09
2023-02-13T01:24:03.787Z,5.07
2023-02-13T01:27:05.365Z,5.05
2023-02-13T01:30:11.775Z,5.03
2023-02-13T01:33:13.523Z,5.01
2023-02-13T01:36:15.540Z,5.00
2023-02-13T01:39:17.079Z,4.98
2023-02-13T01:42:26.092Z,4.95
2023-02-13T01:45:30.166Z,4.91
2023-02-13T01:48:32.524Z,4.91
2023-02-13T01:51:36.574Z,4.90
2023-02-13T01:54:38.606Z,4.88
2023-02-13T01:57:43.227Z,4.87
2023-02-13T02:00:49.951Z,4.85
2023-02-13T02:04:04.785Z,4.82
2023-02-13T02:07:14.572Z,4.81
2023-02-13T02:10:18.770Z,4.81
2023-02-13T02:13:21.910Z,4.78
2023-02-13T02:16:25.305Z,4.75
2023-02-13T02:19:42.356Z,4.73
2023-02-13T02:23:39.602Z,4.73
2023-02-13T02:27:08.979Z,4.72
2023-02-13T02:30:22.275Z,4.71
2023-02-13T02:33:32.896Z,4.70
2023-02-13T02:36:43.584Z,4.68
2023-02-13T02:40:18.906Z,4.68
2023-02-13T02:43:38.657Z,4.68
2023-02-13T02:47:10.194Z,4.66
2023-02-13T02:50:20.331Z,4.66
2023-02-13T02:53:59.039Z,4.66
2023-02-13T02:57:06.225Z,4.65
2023-02-13T03:00:37.701Z,4.65
2023-02-13T03:03:58.696Z,4.64
2023-02-13T03:07:05.006Z,4.65
2023-02-13T03:10:31.855Z,4.65
2023-02-13T03:13:41.027Z,4.64
2023-02-13T03:17:01.177Z,4.65
2023-02-13T03:20:27.187Z,4.65
2023-02-13T03:23:40.803Z,4.65
2023-02-13T03:26:56.753Z,4.63
2023-02-13T03:30:11.703Z,4.64
2023-02-13T03:33:50.688Z,4.65
2023-02-13T03:37:24.396Z,4.63
2023-02-13T03:41:09.045Z,4.63
2023-02-13T03:44:26.717Z,4.61
2023-02-13T03:47:28.441Z,4.61
2023-02-13T03:50:30.034Z,4.60
2023-02-13T03:53:36.070Z,4.61
2023-02-13T03:56:59.902Z,4.62
2023-02-13T04:00:04.079Z,4.61
2023-02-13T04:03:22.598Z,4.61
2023-02-13T04:06:35.796Z,4.62
2023-02-13T04:09:42.955Z,4.61
2023-02-13T04:13:03.288Z,4.61
2023-02-13T04:16:18.365Z,4.61
2023-02-13T04:19:21.151Z,4.75
2023-02-13T04:22:22.709Z,4.95
2023-02-13T04:25:24.283Z,4.97
2023-02-13T04:28:26.005Z,4.96
2023-02-13T04:31:27.716Z,4.93
2023-02-13T04:34:29.285Z,4.90
2023-02-13T04:37:30.887Z,4.86
2023-02-13T04:40:32.564Z,4.83
2023-02-13T04:43:34.298Z,4.79
2023-02-13T04:46:35.889Z,4.76
2023-02-13T04:49:37.436Z,4.73
2023-02-13T04:52:38.972Z,4.70
2023-02-13T04:55:40.583Z,4.69
2023-02-13T04:58:42.110Z,4.67
2023-02-13T05:01:43.895Z,4.64
2023-02-13T05:04:45.610Z,4.62
2023-02-13T05:07:47.321Z,4.62
2023-02-13T05:10:48.858Z,4.60
2023-02-13T05:13:50.420Z,4.59
2023-02-13T05:16:51.996Z,4.56
2023-02-13T05:19:53.502Z,4.54
2023-02-13T05:23:13.992Z,4.54
2023-02-13T05:26:15.557Z,4.51
2023-02-13T05:29:19.931Z,4.50
2023-02-13T05:32:21.507Z,4.48
2023-02-13T05:35:24.883Z,4.46
2023-02-13T05:38:26.531Z,4.45
2023-02-13T05:41:28.081Z,4.45
2023-02-13T05:44:29.607Z,4.47
2023-02-13T05:47:31.162Z,4.47
2023-02-13T05:50:32.763Z,4.46
2023-02-13T05:53:37.233Z,4.45
2023-02-13T05:56:38.816Z,4.44
2023-02-13T05:59:40.412Z,4.43
2023-02-13T06:02:41.964Z,4.41
2023-02-13T06:05:43.563Z,4.40
2023-02-13T06:08:45.154Z,4.37
2023-02-13T06:11:46.682Z,4.35
2023-02-13T06:14:48.270Z,4.35
2023-02-13T06:17:49.827Z,4.34
2023-02-13T06:20:51.389Z,4.34
2023-02-13T06:23:52.945Z,4.32
2023-02-13T06:26:54.493Z,4.32
2023-02-13T06:29:56.028Z,4.32
2023-02-13T06:32:57.674Z,4.33
2023-02-13T06:35:59.341Z,4.34
2023-02-13T06:39:00.890Z,4.32
2023-02-13T06:42:02.467Z,4.34
2023-02-13T06:45:04.324Z,4.33
2023-02-13T06:48:06.423Z,4.34
2023-02-13T06:51:07.975Z,4.33
2023-02-13T06:54:09.514Z,4.32
2023-02-13T06:57:11.074Z,4.31
2023-02-13T07:00:15.212Z,4.31
2023-02-13T07:03:16.924Z,4.30
2023-02-13T07:06:19.968Z,4.32
2023-02-13T07:09:21.524Z,4.30
2023-02-13T07:12:23.083Z,4.32
2023-02-13T07:15:24.684Z,4.32
2023-02-13T07:18:26.879Z,4.33
2023-02-13T07:21:28.460Z,4.33
2023-02-13T07:24:30.030Z,4.34
2023-02-13T07:27:31.626Z,4.34
2023-02-13T07:30:34.517Z,4.35
2023-02-13T07:33:36.320Z,4.34
2023-02-13T07:36:37.893Z,4.35
2023-02-13T07:39:39.546Z,4.35
2023-02-13T07:42:41.358Z,4.36
2023-02-13T07:45:43.001Z,4.38
2023-02-13T07:48:44.708Z,4.39
2023-02-13T07:51:46.265Z,4.39
2023-02-13T07:54:48.158Z,4.40
2023-02-13T07:57:50.634Z,4.41
2023-02-13T08:00:54.540Z,4.41
2023-02-13T08:03:56.149Z,4.43
2023-02-13T08:06:57.723Z,4.44
2023-02-13T08:10:17.830Z,4.44
2023-02-13T08:13:19.402Z,4.44
2023-02-13T08:16:20.925Z,4.45
2023-02-13T08:19:22.538Z,4.45
2023-02-13T08:22:24.660Z,4.47
2023-02-13T08:25:26.224Z,4.49
2023-02-13T08:28:29.448Z,4.50
2023-02-13T08:31:31.186Z,4.51
2023-02-13T08:34:32.868Z,4.52
2023-02-13T08:37:34.419Z,4.50
2023-02-13T08:40:35.946Z,4.52
2023-02-13T08:43:37.489Z,4.53
2023-02-13T08:46:39.114Z,4.55
2023-02-13T08:49:40.714Z,4.56
2023-02-13T08:52:42.262Z,4.56
2023-02-13T08:55:43.820Z,4.55
2023-02-13T08:58:48.817Z,4.54
2023-02-13T09:01:50.612Z,4.54
2023-02-13T09:04:52.269Z,4.54
2023-02-13T09:07:53.887Z,4.55
2023-02-13T09:11:01.347Z,4.54
2023-02-13T09:14:02.996Z,4.56
2023-02-13T09:17:04.570Z,4.60
2023-02-13T09:20:06.972Z,4.61
2023-02-13T09:23:08.548Z,4.58
2023-02-13T09:26:13.188Z,4.60
2023-02-13T09:29:14.733Z,4.61
2023-02-13T09:32:17.186Z,4.60
2023-02-13T09:35:19.771Z,4.62
2023-02-13T09:38:21.339Z,4.64
2023-02-13T09:41:25.690Z,4.66
2023-02-13T09:44:43.587Z,4.68
2023-02-13T09:47:45.600Z,4.71
2023-02-13T09:50:47.166Z,4.71
2023-02-13T09:53:57.698Z,4.73
2023-02-13T09:57:20.675Z,4.71
2023-02-13T10:00:32.741Z,4.72
2023-02-13T10:03:36.835Z,4.72
2023-02-13T10:06:50.462Z,4.69
2023-02-13T10:10:04.663Z,4.69
2023-02-13T10:13:48.106Z,4.71
2023-02-13T10:16:58.833Z,4.71
2023-02-13T10:20:05.640Z,4.68
2023-02-13T10:23:19.420Z,4.70
2023-02-13T10:26:42.479Z,4.71
2023-02-13T10:30:05.729Z,4.73
2023-02-13T10:33:23.215Z,4.76
2023-02-13T10:36:31.392Z,4.79
2023-02-13T10:39:32.968Z,4.82
2023-02-13T10:42:43.450Z,4.85
2023-02-13T10:46:01.224Z,4.87
2023-02-13T10:49:29.008Z,4.87
2023-02-13T10:52:33.334Z,4.86
2023-02-13T10:55:58.092Z,4.89
2023-02-13T10:59:07.274Z,4.91
2023-02-13T11:02:24.004Z,4.94
2023-02-13T11:05:31.575Z,4.95
2023-02-13T11:08:38.858Z,4.97
2023-02-13T11:11:43.491Z,4.98
2023-02-13T11:14:58.498Z,5.01
2023-02-13T11:18:13.235Z,4.98
2023-02-13T11:21:23.589Z,4.96
2023-02-13T11:24:27.360Z,4.98
2023-02-13T11:27:36.905Z,5.00
2023-02-13T11:30:39.502Z,5.00
2023-02-13T11:33:41.717Z,5.00
2023-02-13T11:36:43.559Z,4.97
2023-02-13T11:39:49.554Z,4.97
2023-02-13T11:42:52.467Z,4.96
2023-02-13T11:46:27.937Z,4.96
2023-02-13T11:49:33.412Z,4.98
2023-02-13T11:52:36.543Z,5.00
2023-02-13T11:55:40.671Z,5.02
2023-02-13T11:58:43.491Z,5.04
2023-02-13T12:01:49.304Z,5.07
2023-02-13T12:04:54.010Z,5.09
2023-02-13T12:07:59.868Z,5.09
2023-02-13T12:11:04.027Z,5.10
2023-02-13T12:14:05.977Z,5.11
2023-02-13T12:17:25.550Z,5.15
2023-02-13T12:21:01.279Z,5.20
2023-02-13T12:24:42.117Z,5.19
2023-02-13T12:28:08.671Z,5.22
2023-02-13T12:31:16.141Z,5.25
2023-02-13T12:34:35.993Z,5.25
2023-02-13T12:37:50.303Z,5.24
2023-02-13T12:41:21.972Z,5.25
2023-02-13T12:44:48.908Z,5.24
2023-02-13T12:48:24.542Z,5.24
2023-02-13T12:51:34.842Z,5.25
2023-02-13T12:54:48.597Z,5.25
2023-02-13T12:57:56.063Z,5.26
2023-02-13T13:01:03.950Z,5.27
2023-02-13T13:04:11.602Z,5.28
2023-02-13T13:07:38.342Z,5.31
2023-02-13T13:11:21.523Z,5.34
2023-02-13T13:14:35.247Z,5.30
2023-02-13T13:18:32.386Z,5.27
2023-02-13T13:21:53.250Z,5.27
2023-02-13T13:25:03.949Z,5.26
2023-02-13T13:28:15.690Z,5.25
2023-02-13T13:31:17.613Z,5.25
2023-02-13T13:34:23.870Z,5.27
2023-02-13T13:37:46.858Z,5.28
2023-02-13T13:40:56.950Z,5.28
2023-02-13T13:44:29.896Z,5.31
2023-02-13T13:47:37.418Z,5.32
2023-02-13T13:50:41.910Z,5.32
2023-02-13T13:54:06.552Z,5.33
2023-02-13T13:57:09.424Z,5.33
2023-02-13T14:00:14.165Z,5.31
2023-02-13T14:03:36.465Z,5.30
2023-02-13T14:06:47.408Z,5.31
2023-02-13T14:09:49.225Z,5.31
2023-02-13T14:13:02.637Z,5.33
2023-02-13T14:16:07.145Z,5.34
2023-02-13T14:19:38.477Z,5.35
2023-02-13T14:22:41.323Z,5.33
2023-02-13T14:25:43.170Z,5.33
2023-02-13T14:28:47.433Z,5.33
2023-02-13T14:32:33.644Z,5.35
2023-02-13T14:35:38.061Z,5.33
2023-02-13T14:38:39.695Z,5.32
2023-02-13T14:41:54.038Z,5.33
2023-02-13T14:45:03.089Z,5.33
2023-02-13T14:48:13.743Z,5.34
2023-02-13T14:51:28.841Z,5.34
2023-02-13T14:54:38.454Z,5.33
2023-02-13T14:57:45.119Z,5.33
2023-02-13T15:00:55.228Z,5.31
2023-02-13T15:04:12.698Z,5.30
2023-02-13T15:07:24.680Z,5.31
2023-02-13T15:10:47.088Z,5.31
2023-02-13T15:13:49.052Z,5.45
2023-02-13T15:16:59.151Z,5.50
2023-02-13T15:20:12.747Z,5.49
2023-02-13T15:23:27.013Z,5.49
2023-02-13T15:26:29.573Z,5.50
2023-02-13T15:29:44.349Z,5.51
2023-02-13T15:33:00.387Z,5.50
2023-02-13T15:36:06.205Z,5.46
2023-02-13T15:39:09.842Z,5.45
2023-02-13T15:42:13.012Z,5.45
2023-02-13T15:45:17.568Z,5.45
2023-02-13T15:48:19.289Z,5.49
2023-02-13T15:51:29.799Z,5.50
2023-02-13T15:54:33.432Z,5.47
2023-02-13T15:57:35.160Z,5.44
2023-02-13T16:00:41.350Z,5.44
2023-02-13T16:03:46.235Z,5.41
2023-02-13T16:06:50.955Z,5.39
2023-02-13T16:09:52.649Z,5.38
2023-02-13T16:12:56.336Z,5.38
2023-02-13T16:16:09.549Z,5.42
2023-02-13T16:19:30.063Z,5.44
2023-02-13T16:22:31.588Z,5.44
2023-02-13T16:25:34.667Z,5.45
2023-02-13T16:28:37.953Z,5.61
2023-02-13T16:31:40.784Z,5.61
2023-02-13T16:34:42.405Z,5.61
2023-02-13T16:37:53.245Z,5.56
2023-02-13T16:40:57.294Z,5.51
2023-02-13T16:44:03.993Z,5.46
2023-02-13T16:47:06.325Z,5.42
2023-02-13T16:50:16.009Z,5.38
2023-02-13T16:53:17.657Z,5.33
2023-02-13T16:56:19.314Z,5.28
2023-02-13T16:59:22.838Z,5.28
2023-02-13T17:02:32.090Z,5.28
2023-02-13T17:05:33.621Z,5.29
2023-02-13T17:08:35.165Z,5.29
2023-02-13T17:11:36.717Z,5.30
2023-02-13T17:14:38.275Z,5.29
2023-02-13T17:17:40.030Z,5.27
2023-02-13T17:20:45.198Z,5.23
2023-02-13T17:23:48.022Z,5.21
2023-02-13T17:26:49.549Z,5.20
2023-02-13T17:29:51.315Z,5.20
2023-02-13T17:33:00.386Z,5.22
2023-02-13T17:36:01.952Z,5.25
2023-02-13T17:39:03.518Z,5.28
2023-02-13T17:42:05.061Z,5.31
2023-02-13T17:45:06.950Z,5.32
2023-02-13T17:48:08.782Z,5.34
2023-02-13T17:51:14.637Z,5.35
2023-02-13T17:54:16.255Z,5.36
2023-02-13T17:57:19.180Z,5.33
2023-02-13T18:00:21.549Z,5.30
2023-02-13T18:03:23.110Z,5.30
2023-02-13T18:06:24.631Z,5.32
2023-02-13T18:09:26.180Z,5.28
2023-02-13T18:12:28.325Z,5.18
2023-02-13T18:15:40.748Z,5.13
2023-02-13T18:18:42.328Z,5.12
2023-02-13T18:21:43.863Z,5.12
2023-02-13T18:24:45.402Z,5.12
2023-02-13T18:27:47.226Z,5.11
2023-02-13T18:30:48.934Z,5.10
2023-02-13T18:33:50.548Z,5.04
2023-02-13T18:36:52.137Z,4.98
2023-02-13T18:39:53.757Z,4.99
2023-02-13T18:42:55.337Z,5.03
2023-02-13T18:45:56.992Z,5.05
2023-02-13T18:48:58.718Z,5.04
2023-02-13T18:52:01.643Z,5.02
2023-02-13T18:55:06.343Z,5.04
2023-02-13T18:58:08.048Z,5.07
2023-02-13T19:01:16.437Z,5.09
2023-02-13T19:04:18.074Z,5.06
2023-02-13T19:07:19.613Z,5.04
2023-02-13T19:10:21.163Z,5.06
2023-02-13T19:13:22.728Z,5.08
2023-02-13T19:16:25.155Z,5.10
2023-02-13T19:19:26.703Z,5.10
2023-02-13T19:22:28.573Z,5.09
2023-02-13T19:25:30.144Z,5.02
2023-02-13T19:28:31.740Z,4.95
2023-02-13T19:31:33.690Z,4.97
2023-02-13T19:34:35.280Z,4.98
2023-02-13T19:37:43.868Z,5.00
2023-02-13T19:40:46.100Z,4.98
2023-02-13T19:43:51.042Z,5.00
2023-02-13T19:46:52.672Z,5.03
2023-02-13T19:49:54.206Z,5.05
2023-02-13T19:52:55.777Z,5.06
2023-02-13T19:56:01.057Z,5.08
2023-02-13T19:59:04.018Z,5.08
2023-02-13T20:02:06.164Z,5.07
2023-02-13T20:05:08.867Z,5.05
2023-02-13T20:08:11.198Z,5.03
2023-02-13T20:11:15.193Z,4.96
2023-02-13T20:14:17.147Z,4.91
2023-02-13T20:17:18.744Z,4.86
2023-02-13T20:20:20.421Z,4.86
2023-02-13T20:23:22.268Z,4.90
2023-02-13T20:26:24.281Z,4.89
2023-02-13T20:29:25.992Z,4.90
2023-02-13T20:32:27.571Z,4.91
2023-02-13T20:35:29.244Z,4.91
2023-02-13T20:38:32.126Z,4.93
2023-02-13T20:41:35.838Z,4.93
2023-02-13T20:44:37.447Z,4.90
2023-02-13T20:47:40.406Z,4.89
2023-02-13T20:50:42.037Z,4.85
2023-02-13T20:53:44.771Z,4.81
2023-02-13T20:56:47.734Z,4.72
2023-02-13T20:59:49.320Z,4.63
2023-02-13T21:02:50.992Z,4.59
2023-02-13T21:05:52.981Z,4.56
2023-02-13T21:08:55.124Z,4.54
2023-02-13T21:11:56.740Z,4.50
2023-02-13T21:14:58.347Z,4.43
2023-02-13T21:18:01.799Z,4.33
2023-02-13T21:21:03.976Z,4.31
2023-02-13T21:24:08.500Z,4.21
2023-02-13T21:27:10.958Z,4.09
2023-02-13T21:30:13.036Z,4.00
2023-02-13T21:33:14.638Z,3.90
2023-02-13T21:36:16.229Z,3.81
2023-02-13T21:39:17.805Z,3.77
2023-02-13T21:42:19.815Z,3.72
2023-02-13T21:45:21.449Z,3.65
2023-02-13T21:48:23.005Z,3.62
2023-02-13T21:51:26.243Z,3.59
2023-02-13T21:54:27.837Z,3.63
2023-02-13T21:57:29.426Z,3.68
2023-02-13T22:00:31.105Z,3.67
2023-02-13T22:03:32.627Z,3.62
2023-02-13T22:06:36.539Z,3.58
2023-02-13T22:09:38.223Z,3.53
2023-02-13T22:12:39.766Z,3.48
2023-02-13T22:15:41.267Z,3.39
2023-02-13T22:18:44.353Z,3.34
2023-02-13T22:21:46.297Z,3.29
2023-02-13T22:24:47.825Z,3.26
2023-02-13T22:27:49.414Z,3.22
2023-02-13T22:30:51.366Z,3.16
2023-02-13T22:34:09.628Z,3.13
2023-02-13T22:37:12.688Z,3.11
2023-02-13T22:40:14.401Z,3.08
2023-02-13T22:43:15.978Z,3.03
2023-02-13T22:46:18.958Z,3.01
2023-02-13T22:49:20.530Z,2.97
2023-02-13T22:52:22.126Z,2.94
2023-02-13T22:55:23.786Z,2.90
2023-02-13T22:58:25.795Z,2.86
2023-02-13T23:01:28.338Z,2.80
2023-02-13T23:04:30.011Z,2.74
2023-02-13T23:07:31.945Z,2.69
2023-02-13T23:10:33.742Z,2.67
2023-02-13T23:13:35.352Z,2.64
2023-02-13T23:16:58.054Z,2.76
2023-02-13T23:19:59.625Z,2.75
2023-02-13T23:23:02.688Z,2.72
2023-02-13T23:26:07.581Z,2.66
2023-02-13T23:29:09.538Z,2.59
2023-02-13T23:32:11.181Z,2.53
2023-02-13T23:35:12.777Z,2.48
2023-02-13T23:38:14.349Z,2.43
2023-02-13T23:41:15.862Z,2.41
2023-02-13T23:44:17.449Z,2.37
2023-02-13T23:47:19.123Z,2.34
2023-02-13T23:50:20.863Z,2.31
2023-02-13T23:53:22.476Z,2.29
2023-02-13T23:56:25.071Z,2.27
2023-02-13T23:59:26.750Z,2.26
